Jackson, MI (49202)

9:18 PM EDT on May 27, 2015 (GMT -0400)
Cork 'n Cap | | Change Station
CLOSE
Current Station
Personal Weather Station
Location: Jackson, MI
Elevation: 978 ft
Nearby Weather Stations

Elev 978 ft 42.26 °N, 84.42 °W | Updated 2 seconds ago

Partly Cloudy
Partly Cloudy
66.8 °F
Feels Like 66.8 °F
N
4.2
Wind Variable Wind from WSW
Gusts 4.7 mph

Today
High -- | Low -- °F
--% Chance of Precip.
Yesterday
High -- | Low -- °F
Precip. -- in
6:06 AM 9:03 PM
Waxing Gibbous, 71% visible
Pressure 30.02 in
Visibility 10.0 miles
Clouds Clear
Dew Point 64 °F
Humidity 91%
Rainfall -999.00 in
Snow Depth Not available.
UV 0 out of 12
Pollen 9.00 out of 12
Air Quality Not available.
Flu Activity Sporadic
METAR KJXN 280056Z 27005KT 10SM CLR 19/13 A3003 RMK AO2 SLP166 T01890133

More Conditions Fewer Conditions

Pressure 30.02 in
Visibility 10.0 miles
Clouds Clear
Dew Point 64 °F
Humidity 91%
Rainfall -999.00 in
Snow Depth Not available.
UV 0 out of 12
Pollen 9.00 out of 12
Air Quality Not available.
Flu Activity Sporadic
METAR KJXN 280056Z 27005KT 10SM CLR 19/13 A3003 RMK AO2 SLP166 T01890133

More Conditions Fewer Conditions

10-Day Weather Forecast

Almanac

Astronomy

May. 27, 2015 Rise Set
Actual Time
Civil Twilight
Nautical Twilight
Astronomical Twilight
Moon
Length of Visible Light
Length of Day
Tomorrow will be .
, % of the Moon is Illuminated

Today's Extremes

State Highs State Lows

Community

WunderPhotos

Upload Photos

1,824,843 photos uploaded!

WunderBlogs® & News

Nearby

Air Quality

  Air Quality AQ Index Pollutant
Not available.

Snow Depth

Station Depth Elevation

Earthquake Activity

City Distance Mag. Time & Date
Minimum magnitude displayed is 2.5.

Coastal Water Temperatures

Place Temperature

Stations

Nearby Weather Stations

Station Location Temp. Windchill Dew Point Humidity Wind Precip. Elev Updated Type